• Join FlightAware (Why Join?)
  • Login
  • US Flag 
12:32AM EDT


 

Airport Tracker/Info


-or-


 

Live Flight TrackerFlight Track Log ✈ ASA603 ✈ 27-Apr-2013 ✈ KLAS - KSEA

Flight Track Log - Related Links

Times and Time Zones

All times are in EDT time to prevent confusion due to time zone crossing. See the ASA603 flight status page for this flight to view local times or setup timezone preferences in your user account.

Time Position Orientation Groundspeed Altitude Reporting Facility
EDT Latitude Longitude Course Direction KTS MPH feet Rate Location/Type
09:56AM 36.0767 -115.1706 270° West 196 226 3,100  Level Los Angeles Center
09:57AM 36.0764 -115.2186 270° West 204 235 4,400 2,100 Climbing Los Angeles Center
09:58AM 36.0225 -115.2789 222° Southwest 284 327 6,800 2,280 Climbing Los Angeles Center
09:59AM 35.9556 -115.3194 206° Southwest 285 328 9,400 2,460 Climbing Los Angeles Center
10:00AM 35.9294 -115.4403 255° West 307 353 12,200 2,820 Climbing Los Angeles Center
10:01AM 35.9206 -115.5619 265° West 336 387 15,200 2,700 Climbing Los Angeles Center
10:02AM 35.9128 -115.6900 266° West 368 423 17,700 2,160 Climbing Los Angeles Center
10:03AM 35.9050 -115.8247 266° West 391 450 19,600 2,040 Climbing Los Angeles Center
10:04AM 35.9069 -115.9675 271° West 423 487 21,900 2,160 Climbing Los Angeles Center
10:05AM 35.9847 -116.0761 312° West 417 480 24,000 1,860 Climbing Los Angeles Center
10:06AM 36.0678 -116.1681 318° Northwest 420 483 25,800 1,680 Climbing Los Angeles Center
10:07AM 36.1558 -116.2686 317° Northwest 426 490 27,500 1,560 Climbing Los Angeles Center
10:08AM 36.2458 -116.3750 316° Northwest 439 505 29,000 1,620 Climbing Los Angeles Center
10:09AM 36.3364 -116.4803 317° Northwest 445 512 30,900 1,740 Climbing Los Angeles Center
10:10AM 36.4267 -116.5833 317° Northwest 444 511 32,600 1,560 Climbing Los Angeles Center
10:11AM 36.5139 -116.6858 317° Northwest 438 504 34,100 1,380 Climbing Los Angeles Center
10:12AM 36.6311 -116.7989 322° Northwest 439 505 35,500 1,200 Climbing Los Angeles Center
10:13AM 36.7347 -116.8744 330° Northwest 433 498 36,600 1,020 Climbing Los Angeles Center
10:14AM 36.8592 -116.9697 329° Northwest 434 499 37,900 600 Climbing Los Angeles Center
10:15AM 36.9617 -117.0483 329° Northwest 433 498 38,000  Climbing Los Angeles Center
10:16AM 37.0650 -117.1300 328° Northwest 437 503 38,000  Level Oakland Center
10:17AM 37.1683 -117.2086 329° Northwest 434 499 38,000  Level Oakland Center
10:18AM 37.2789 -117.2728 335° Northwest 435 501 38,000  Level Oakland Center
10:19AM 37.3914 -117.3342 337° Northwest 438 504 38,000  Level Oakland Center
10:20AM 37.5031 -117.3956 336° Northwest 437 503 38,000  Level Oakland Center
10:21AM 37.6164 -117.4564 337° Northwest 438 504 38,000  Level Oakland Center
10:22AM 37.7286 -117.5189 336° Northwest 438 504 38,000  Level Oakland Center
10:23AM 37.8400 -117.5800 337° Northwest 433 498 38,000  Level Oakland Center
10:24AM 37.9514 -117.6417 336° Northwest 432 497 38,000  Level Oakland Center
10:25AM 38.0619 -117.7036 336° Northwest 430 495 38,000  Level Oakland Center
10:26AM 38.1728 -117.7653 336° Northwest 430 495 38,000  Level Oakland Center
10:27AM 38.2822 -117.8272 336° Northwest 428 493 38,000  Level Oakland Center
10:28AM 38.3914 -117.8875 337° Northwest 425 489 38,000  Level Oakland Center
10:29AM 38.5000 -117.9475 337° Northwest 422 486 38,000  Level Oakland Center
10:30AM 38.6089 -118.0111 335° Northwest 427 491 38,000  Level Oakland Center
10:31AM 38.7314 -118.0803 336° Northwest 428 493 38,000  Level Oakland Center
10:33AM 38.8408 -118.1431 336° Northwest 430 495 38,000  Level Oakland Center
10:34AM 38.9511 -118.2056 336° Northwest 432 497 38,000  Level Oakland Center
10:35AM 39.0600 -118.2694 336° Northwest 430 495 38,000  Level Oakland Center
10:36AM 39.1694 -118.3322 336° Northwest 432 497 38,000  Level Oakland Center
10:37AM 39.2772 -118.3947 336° Northwest 428 493 38,000  Level Oakland Center
10:38AM 39.3967 -118.4633 336° Northwest 426 490 38,000  Level Oakland Center
10:39AM 39.5119 -118.5303 336° Northwest 427 491 38,000  Level Oakland Center
10:40AM 39.6189 -118.5942 335° Northwest 429 494 38,000  Level Oakland Center
10:41AM 39.7267 -118.6572 336° Northwest 428 493 38,000  Level Oakland Center
10:42AM 39.8339 -118.7200 336° Northwest 424 488 38,000  Level Oakland Center
10:43AM 39.9414 -118.7839 336° Northwest 425 489 38,000  Level Oakland Center
10:44AM 40.0486 -118.8483 335° Northwest 424 488 38,000  Level Oakland Center
10:45AM 40.1556 -118.9122 335° Northwest 424 488 38,000  Level Oakland Center
10:46AM 40.2625 -118.9758 336° Northwest 423 487 38,000  Level Oakland Center
10:47AM 40.3700 -119.0400 336° Northwest 424 488 38,000  Level Oakland Center
10:48AM 40.4750 -119.1033 335° Northwest 419 482 38,000  Level Oakland Center
10:49AM 40.6000 -119.1808 335° Northwest 415 478 38,000  Level Oakland Center
10:50AM 40.7058 -119.2433 336° Northwest 416 479 38,000  Level Oakland Center
10:51AM 40.8106 -119.3081 335° Northwest 416 479 38,000  Level Oakland Center
10:52AM 40.9078 -119.3683 335° Northwest 416 479 38,000  Level Oakland Center
10:53AM 41.0094 -119.4300 335° Northwest 417 480 38,000  Level Oakland Center
10:54AM 41.1275 -119.5028 335° Northwest 422 486 38,000  Level Oakland Center
10:54AM 41.1947 -119.5408 337° Northwest 422 486 38,000  Level Seattle Center
10:55AM 41.3006 -119.6069 335° Northwest 421 484 38,000  Level Seattle Center
10:56AM 41.3425 -119.6331 335° Northwest 424 488 38,000  Level Oakland Center
10:56AM 41.4058 -119.6703 336° Northwest 416 479 38,000  Level Seattle Center
10:57AM 41.5094 -119.7381 334° Northwest 416 479 38,000  Level Seattle Center
10:58AM 41.6133 -119.8036 335° Northwest 414 476 38,000  Level Seattle Center
10:59AM 41.7169 -119.8703 334° Northwest 415 478 38,000  Level Seattle Center
11:00AM 41.7592 -119.8969 335° Northwest 416 479 38,000  Level Oakland Center
11:00AM 41.8214 -119.9358 335° Northwest 415 478 38,000  Level Seattle Center
11:01AM 41.9264 -120.0028 335° Northwest 418 481 38,000  Level Seattle Center
11:02AM 42.0300 -120.0675 335° Northwest 413 475 38,000  Level Seattle Center
11:03AM 42.1344 -120.1331 335° Northwest 415 478 38,000  Level Seattle Center
11:05AM 42.2383 -120.1997 335° Northwest 414 476 38,000  Level Seattle Center
11:06AM 42.3422 -120.2653 335° Northwest 414 476 38,000  Level Seattle Center
11:07AM 42.4467 -120.3317 335° Northwest 416 479 38,000  Level Seattle Center
11:08AM 42.5503 -120.3992 334° Northwest 414 476 38,000  Level Seattle Center
11:09AM 42.6564 -120.4681 334° Northwest 420 483 38,000  Level Seattle Center
11:10AM 42.7614 -120.5350 335° Northwest 419 482 38,000  Level Seattle Center
11:11AM 42.8678 -120.6039 335° Northwest 422 486 38,000  Level Seattle Center
11:12AM 42.9931 -120.6875 334° Northwest 419 482 38,000  Level Seattle Center
11:13AM 43.0986 -120.7558 335° Northwest 421 484 38,000  Level Seattle Center
11:14AM 43.2014 -120.8236 334° Northwest 414 476 38,000  Level Seattle Center
11:15AM 43.3064 -120.8939 334° Northwest 421 484 38,000  Level Seattle Center
11:16AM 43.4103 -120.9639 334° Northwest 419 482 38,000  Level Seattle Center
11:17AM 43.5139 -121.0333 334° Northwest 415 478 38,000  Level Seattle Center
11:18AM 43.6108 -121.0969 335° Northwest 412 474 38,000  Level Seattle Center
11:19AM 43.7197 -121.1711 334° Northwest 412 474 38,000  Level Seattle Center
11:20AM 43.8239 -121.2397 335° Northwest 414 476 38,000  Level Seattle Center
11:21AM 43.9222 -121.3086 333° Northwest 413 475 38,000  Level Seattle Center
11:22AM 44.0275 -121.3800 334° Northwest 415 478 38,000  Level Seattle Center
11:23AM 44.1328 -121.4514 334° Northwest 416 479 38,000  Level Seattle Center
11:24AM 44.2392 -121.5242 334° Northwest 419 482 38,000  Level Seattle Center
11:25AM 44.3453 -121.5964 334° Northwest 420 483 38,000  Level Seattle Center
11:26AM 44.4497 -121.6678 334° Northwest 415 478 38,000  Level Seattle Center
11:27AM 44.5522 -121.7394 334° Northwest 412 474 38,000  Level Seattle Center
11:28AM 44.6547 -121.8114 333° Northwest 410 472 38,000  Level Seattle Center
11:29AM 44.7575 -121.8817 334° Northwest 410 472 38,000  Level Seattle Center
11:30AM 44.8692 -121.9606 333° Northwest 409 471 38,000  Level Seattle Center
11:31AM 44.9625 -122.0281 333° Northwest 412 474 38,000  Level Seattle Center
11:32AM 45.0631 -122.0992 333° Northwest 407 468 38,000  Level Seattle Center
11:33AM 45.1658 -122.1736 333° Northwest 414 476 38,000  Level Seattle Center
11:34AM 45.2686 -122.2456 334° Northwest 416 479 38,000  Level Seattle Center
11:35AM 45.3919 -122.3342 333° Northwest 416 479 38,000  Level Seattle Center
11:36AM 45.4931 -122.4067 333° Northwest 411 473 38,000  Level Seattle Center
11:37AM 45.5967 -122.4833 333° Northwest 418 481 38,000  Level Seattle Center
11:38AM 45.6986 -122.5569 333° Northwest 414 476 38,000 -300 Level Seattle Center
11:39AM 45.8089 -122.6075 342° North 421 484 37,400 -840 Descending Seattle Center
11:40AM 45.9239 -122.6364 350° North 421 484 36,400 -2,040 Descending Seattle Center
11:41AM 46.0378 -122.6639 350° North 417 480 33,400 -2,760 Descending Seattle Center
11:42AM 46.1522 -122.6897 351° North 419 482 30,800 -2,340 Descending Seattle Center
11:43AM 46.2581 -122.7103 352° North 416 479 28,700 -2,340 Descending Seattle Center
11:44AM 46.3897 -122.7247 356° North 405 466 26,100 -2,340 Descending Seattle Center
11:45AM 46.4964 -122.7175 North 393 452 24,000 -2,040 Descending Seattle Center
11:46AM 46.5997 -122.7139 North 380 437 22,000 -2,040 Descending Seattle Center
11:47AM 46.7036 -122.7089 North 377 434 19,900 -2,100 Descending Seattle Center
11:48AM 46.8047 -122.7033 North 369 425 17,800 -2,100 Descending Seattle Center
11:49AM 46.8736 -122.6358 34° Northeast 392 451 16,400 -1,800 Descending Seattle Center
11:49AM 46.8928 -122.6142 38° Northeast 387 445 16,000 -1,920 Descending Seattle Center
11:50AM 46.9533 -122.5572 33° Northeast 374 430 14,700 -1,800 Descending Seattle Center
11:50AM 46.9800 -122.5428 20° North 362 417 14,200 -1,680 Descending Seattle Center
11:51AM 47.0447 -122.5142 17° North 340 391 13,000 -1,680 Descending Seattle Center
11:51AM 47.0708 -122.5036 15° North 345 397 12,500 -1,680 Descending Seattle Center
11:52AM 47.1364 -122.4903 North 328 377 11,300 -1,620 Descending Seattle Center
11:52AM 47.1617 -122.4847 North 332 382 10,900 -1,200 Descending Seattle Center
11:53AM 47.2236 -122.4753 North 317 365 10,100 -1,140 Descending Seattle Center
11:53AM 47.2447 -122.4725 North 297 342 9,800 -1,140 Descending Seattle Center
11:54AM 47.3031 -122.4647 North 279 321 9,000 -1,440 Descending Seattle Center
11:54AM 47.3375 -122.4575 North 280 322 8,400 -1,320 Descending Seattle Center
11:55AM 47.3806 -122.4550 North 273 314 7,700 -1,020 Descending Seattle Center
11:55AM 47.4128 -122.4547 360° North 274 315 7,400 -840 Descending Seattle Center
11:56AM 47.4544 -122.4569 358° North 257 296 6,900 -1,020 Descending Seattle Center
11:56AM 47.4831 -122.4556 North 257 296 6,400 -1,020 Descending Seattle Center
11:57AM 47.5236 -122.4583 357° North 249 287 5,900 -1,140 Descending Seattle Center
11:57AM 47.5547 -122.4556 North 245 282 5,300 -1,200 Descending Seattle Center
11:58AM 47.5892 -122.4453 11° North 246 283 4,700 -1,320 Descending Seattle Center
11:58AM 47.6083 -122.4044 55° Northeast 252 290 4,000 -1,440 Descending Seattle Center
11:59AM 47.6003 -122.3472 102° East 230 265 3,300 -1,200 Descending Seattle Center
11:59AM 47.5861 -122.3253 134° Southeast 207 238 2,800 -900 Descending Seattle Center
12:00PM 47.5606 -122.3133 162° South 150 173 2,400 -840 Descending Seattle Center
12:00PM 47.5458 -122.3106 173° South 147 169 2,000 -720 Descending Seattle Center
12:01PM 47.5242 -122.3106 180° South 117 135 1,700 -600 Descending Seattle Center
12:01PM 47.5144 -122.3106 180° South 131 151 1,400 -720 Descending Seattle Center
12:02PM 47.4886 -122.3106 180° South 126 145 1,000 -720 Descending Seattle Center
12:02PM 47.4789 -122.3114 183° South 130 150 700 -360 Descending Seattle Center
12:03PM 47.4344 -122.3125 181° South 132 152 500 -240 Descending Seattle Center
12:05PM 47.4333 -122.3000 180° South  Level FlightAware Approximate